Time;durP1;ratioP1;P1;durP2;ratioP2;P2;SDS_P1;SDS_P2;PMS_P1;PMS_P2;Temp;Humidity;BMP_temperature;BMP_pressure;BME280_temperature;BME280_humidity;BME280_pressure;Samples;Min_cycle;Max_cycle;Signal;HPM_P1;HPM_P2
2021/05/28 00:00:30;;;;;;;8.88;3.47;;;8.30;99.90;;;;;;4968412;28;20035;-69
2021/05/28 00:02:56;;;;;;;9.57;3.30;;;8.30;99.90;;;;;;4970972;28;20042;-71
2021/05/28 00:05:22;;;;;;;15.00;3.80;;;8.30;99.90;;;;;;4970598;28;20035;-70
2021/05/28 00:07:47;;;;;;;10.35;3.40;;;8.30;99.90;;;;;;4970424;28;20035;-70
2021/05/28 00:10:14;;;;;;;9.20;3.38;;;8.30;99.90;;;;;;4971113;28;20499;-69
2021/05/28 00:12:40;;;;;;;8.45;3.92;;;8.30;99.90;;;;;;4971978;28;20082;-69
2021/05/28 00:15:08;;;;;;;7.30;3.92;;;8.30;99.90;;;;;;4971524;28;20031;-69
2021/05/28 00:17:33;;;;;;;9.13;3.10;;;8.30;99.90;;;;;;4971859;28;20069;-70
2021/05/28 00:19:59;;;;;;;8.60;3.17;;;8.30;99.90;;;;;;4970703;28;20055;-73
2021/05/28 00:22:25;;;;;;;12.90;3.80;;;8.30;99.90;;;;;;4971743;28;20047;-70
2021/05/28 00:24:51;;;;;;;10.20;3.05;;;8.30;99.90;;;;;;4971635;28;20034;-69
2021/05/28 00:27:16;;;;;;;8.98;3.78;;;8.30;99.90;;;;;;4969721;28;20062;-70
2021/05/28 00:29:42;;;;;;;11.57;3.03;;;8.30;99.90;;;;;;4971107;28;20047;-69
2021/05/28 00:32:08;;;;;;;8.55;3.92;;;8.30;99.90;;;;;;4971334;28;20049;-70
2021/05/28 00:34:34;;;;;;;12.52;3.58;;;8.30;99.90;;;;;;4970888;28;20059;-69
2021/05/28 00:37:00;;;;;;;13.13;4.53;;;8.30;99.90;;;;;;4969183;28;20625;-69
2021/05/28 00:39:25;;;;;;;10.57;3.22;;;8.20;99.90;;;;;;4970011;28;20042;-69
2021/05/28 00:41:51;;;;;;;7.15;3.05;;;8.20;99.90;;;;;;4971386;28;20117;-70
2021/05/28 00:44:22;;;;;;;7.95;3.67;;;8.20;99.90;;;;;;4956025;28;20121;-69
2021/05/28 00:46:48;;;;;;;7.10;2.88;;;8.20;99.90;;;;;;4967469;28;20043;-70
2021/05/28 00:49:14;;;;;;;10.00;3.67;;;8.20;99.90;;;;;;4970147;28;20039;-69
2021/05/28 00:51:39;;;;;;;10.10;3.47;;;8.10;99.90;;;;;;4971262;28;20053;-70
2021/05/28 00:54:05;;;;;;;10.50;3.95;;;8.10;99.90;;;;;;4971343;28;20122;-72
2021/05/28 00:56:31;;;;;;;9.57;3.90;;;8.10;99.90;;;;;;4970295;28;20101;-70
2021/05/28 00:59:02;;;;;;;9.63;3.53;;;8.10;99.90;;;;;;4970815;28;20042;-69
2021/05/28 01:01:28;;;;;;;9.70;3.45;;;8.10;99.90;;;;;;4982163;28;20058;-70
2021/05/28 01:03:54;;;;;;;7.72;3.00;;;8.10;99.90;;;;;;4985987;28;20085;-69
2021/05/28 01:06:19;;;;;;;9.02;2.92;;;8.00;99.90;;;;;;4969851;28;20035;-69
2021/05/28 01:08:45;;;;;;;10.02;4.10;;;8.00;99.90;;;;;;4969829;28;20034;-70
2021/05/28 01:11:11;;;;;;;7.82;3.38;;;8.00;99.90;;;;;;4969275;28;20061;-69
2021/05/28 01:13:37;;;;;;;6.15;3.08;;;8.00;99.90;;;;;;4970780;28;20491;-69
2021/05/28 01:16:03;;;;;;;6.78;3.08;;;7.90;99.90;;;;;;4970774;28;20027;-69
2021/05/28 01:18:28;;;;;;;13.75;3.53;;;7.90;99.90;;;;;;4969536;28;20643;-69
2021/05/28 01:20:54;;;;;;;8.07;3.38;;;7.90;99.90;;;;;;4970396;28;20066;-69
2021/05/28 01:23:19;;;;;;;7.03;3.20;;;7.90;99.90;;;;;;4970294;28;20035;-69
2021/05/28 01:25:45;;;;;;;7.32;3.05;;;7.80;99.90;;;;;;4970290;28;20027;-69
2021/05/28 01:28:10;;;;;;;8.38;3.47;;;7.80;99.90;;;;;;4969805;28;20031;-70
2021/05/28 01:30:36;;;;;;;11.25;3.30;;;7.80;99.90;;;;;;4968663;28;20447;-69
2021/05/28 01:33:02;;;;;;;9.05;3.22;;;7.70;99.90;;;;;;4970585;28;20031;-69
2021/05/28 01:35:27;;;;;;;7.35;3.70;;;7.70;99.90;;;;;;4969789;28;20035;-70
2021/05/28 01:37:53;;;;;;;9.35;3.97;;;7.60;99.90;;;;;;4966646;28;20129;-69
2021/05/28 01:40:20;;;;;;;7.28;3.33;;;7.50;99.90;;;;;;4969957;28;20396;-69
2021/05/28 01:42:46;;;;;;;6.80;3.08;;;7.50;99.90;;;;;;4968578;28;20104;-69
2021/05/28 01:45:12;;;;;;;9.73;3.63;;;7.50;99.90;;;;;;4970389;28;20084;-69
2021/05/28 01:47:37;;;;;;;8.40;3.30;;;7.40;99.90;;;;;;4968956;28;20042;-69
2021/05/28 01:50:04;;;;;;;9.43;3.58;;;7.40;99.90;;;;;;4969664;28;20049;-69
2021/05/28 01:52:30;;;;;;;9.95;4.10;;;7.40;99.90;;;;;;4969909;28;20031;-69
2021/05/28 01:54:56;;;;;;;9.05;3.63;;;7.30;99.90;;;;;;4969069;28;20062;-69
2021/05/28 01:57:22;;;;;;;7.40;3.60;;;7.30;99.90;;;;;;4969412;28;20023;-69
2021/05/28 01:59:47;;;;;;;6.78;3.60;;;7.30;99.90;;;;;;4967172;28;20039;-69
2021/05/28 02:02:14;;;;;;;6.30;3.42;;;7.20;99.90;;;;;;4970031;28;20039;-69
2021/05/28 02:04:41;;;;;;;9.15;3.25;;;7.20;99.90;;;;;;4984359;28;20036;-69
2021/05/28 02:07:06;;;;;;;7.13;3.17;;;7.20;99.90;;;;;;4968793;28;20057;-69
2021/05/28 02:09:32;;;;;;;7.78;4.13;;;7.20;99.90;;;;;;4968387;28;20495;-69
2021/05/28 02:11:58;;;;;;;7.65;3.53;;;7.20;99.90;;;;;;4969498;28;20019;-69
2021/05/28 02:14:28;;;;;;;6.50;3.05;;;7.10;99.90;;;;;;4969255;28;20059;-69
2021/05/28 02:16:55;;;;;;;8.50;3.87;;;7.10;99.90;;;;;;4969810;28;20041;-69
2021/05/28 02:19:21;;;;;;;10.93;3.35;;;7.00;99.90;;;;;;4969485;28;20433;-69
2021/05/28 02:21:47;;;;;;;10.75;4.18;;;7.00;99.90;;;;;;4969223;28;20121;-69
2021/05/28 02:24:14;;;;;;;7.75;3.45;;;7.00;99.90;;;;;;4969899;28;20034;-69
2021/05/28 02:26:45;;;;;;;7.60;3.40;;;7.00;99.90;;;;;;4967799;28;21084;-70
2021/05/28 02:29:12;;;;;;;7.45;4.10;;;7.00;99.90;;;;;;4967514;28;20026;-69
2021/05/28 02:31:38;;;;;;;5.90;3.80;;;7.00;99.90;;;;;;4968768;28;20042;-69
2021/05/28 02:34:04;;;;;;;9.13;4.00;;;7.00;99.90;;;;;;4969472;28;20399;-69
2021/05/28 02:36:31;;;;;;;6.60;3.70;;;6.90;99.90;;;;;;4967726;28;20122;-69
2021/05/28 02:38:56;;;;;;;9.10;4.18;;;6.90;99.90;;;;;;4969044;28;20031;-69
2021/05/28 02:41:22;;;;;;;10.18;3.95;;;6.90;99.90;;;;;;4969451;28;20376;-69
2021/05/28 02:43:47;;;;;;;7.35;4.00;;;6.90;99.90;;;;;;4968382;28;20451;-69
2021/05/28 02:46:13;;;;;;;10.52;4.25;;;6.80;99.90;;;;;;4969342;28;20399;-69
2021/05/28 02:48:39;;;;;;;11.35;4.22;;;6.80;99.90;;;;;;4960094;28;20431;-69
2021/05/28 02:51:04;;;;;;;11.07;4.20;;;6.80;99.90;;;;;;4968922;28;20038;-70
2021/05/28 02:53:34;;;;;;;6.90;3.42;;;6.80;99.90;;;;;;4983178;28;20047;-69
2021/05/28 02:56:01;;;;;;;9.75;3.88;;;6.70;99.90;;;;;;4969207;28;20038;-70
2021/05/28 02:58:27;;;;;;;16.95;4.10;;;6.70;99.90;;;;;;4982251;28;20380;-72
2021/05/28 03:00:52;;;;;;;10.85;3.97;;;6.70;99.90;;;;;;4972023;28;20038;-69
2021/05/28 03:03:18;;;;;;;6.93;3.55;;;6.60;99.90;;;;;;4968801;28;20695;-69
2021/05/28 03:05:43;;;;;;;11.38;4.25;;;6.60;99.90;;;;;;4968114;28;20109;-70
2021/05/28 03:08:09;;;;;;;7.50;4.07;;;6.60;99.90;;;;;;4966880;28;20043;-69
2021/05/28 03:10:34;;;;;;;8.32;3.72;;;6.60;99.90;;;;;;4968348;28;20047;-69
2021/05/28 03:13:00;;;;;;;9.18;4.13;;;6.60;99.90;;;;;;4968796;28;20039;-69
2021/05/28 03:15:26;;;;;;;7.68;3.97;;;6.60;99.90;;;;;;4968558;28;20070;-69
2021/05/28 03:17:52;;;;;;;13.60;3.92;;;6.50;99.90;;;;;;4967894;28;20065;-69
2021/05/28 03:20:28;;;;;;;9.05;3.88;;;6.50;99.90;;;;;;4968792;28;20643;-70
2021/05/28 03:22:54;;;;;;;10.82;4.18;;;6.50;99.90;;;;;;4968412;28;20027;-69
2021/05/28 03:25:20;;;;;;;10.85;4.05;;;6.50;99.90;;;;;;4983476;28;20038;-69
2021/05/28 03:27:48;;;;;;;12.63;4.05;;;6.50;99.90;;;;;;4967735;28;20046;-70
2021/05/28 03:30:16;;;;;;;8.38;4.10;;;6.40;99.90;;;;;;4976851;28;20053;-70
2021/05/28 03:32:41;;;;;;;13.77;4.97;;;6.50;99.90;;;;;;4972074;28;20502;-70
2021/05/28 03:35:07;;;;;;;11.75;4.20;;;6.50;99.90;;;;;;4972114;28;20038;-69
2021/05/28 03:37:33;;;;;;;13.98;4.50;;;6.50;99.90;;;;;;4963518;28;20039;-69
2021/05/28 03:40:00;;;;;;;10.68;3.80;;;6.40;99.90;;;;;;4967742;28;20038;-69
2021/05/28 03:42:25;;;;;;;13.32;4.40;;;6.40;99.90;;;;;;4968522;28;20070;-70
2021/05/28 03:44:51;;;;;;;10.75;4.13;;;6.40;99.90;;;;;;4967791;28;20030;-70
2021/05/28 03:47:18;;;;;;;12.45;4.72;;;6.40;99.90;;;;;;4968850;28;20039;-69
2021/05/28 03:49:44;;;;;;;8.50;4.25;;;6.40;99.90;;;;;;4971248;28;20594;-69
2021/05/28 03:52:10;;;;;;;7.88;3.63;;;6.40;99.90;;;;;;4967284;28;20380;-69
2021/05/28 03:54:36;;;;;;;7.57;3.60;;;6.40;99.90;;;;;;4963889;28;20396;-69
2021/05/28 03:57:02;;;;;;;11.48;4.90;;;6.40;99.90;;;;;;4966680;28;20031;-70
2021/05/28 03:59:28;;;;;;;8.13;4.15;;;6.40;99.90;;;;;;4967440;28;20038;-69
2021/05/28 04:01:53;;;;;;;9.02;4.60;;;6.40;99.90;;;;;;4966817;28;20031;-68
2021/05/28 04:04:19;;;;;;;12.93;5.18;;;6.40;99.90;;;;;;4968514;28;20038;-69
2021/05/28 04:06:44;;;;;;;8.20;4.50;;;6.40;99.90;;;;;;4967796;28;20122;-69
2021/05/28 04:09:10;;;;;;;11.43;4.60;;;6.40;99.90;;;;;;4967350;28;20039;-69
2021/05/28 04:11:35;;;;;;;7.75;3.72;;;6.50;99.90;;;;;;4968127;28;20027;-69
2021/05/28 04:14:01;;;;;;;10.52;4.25;;;6.50;99.90;;;;;;4967941;28;20046;-69
2021/05/28 04:16:27;;;;;;;8.55;3.92;;;6.50;99.90;;;;;;4967782;28;20392;-69
2021/05/28 04:18:52;;;;;;;11.45;4.30;;;6.50;99.90;;;;;;4965912;28;20126;-69
2021/05/28 04:21:18;;;;;;;7.53;3.92;;;6.50;99.90;;;;;;4966801;28;20554;-69
2021/05/28 04:23:43;;;;;;;10.43;3.95;;;6.60;99.90;;;;;;4967495;28;20399;-69
2021/05/28 04:26:09;;;;;;;9.23;4.28;;;6.70;99.90;;;;;;4968116;28;20113;-69
2021/05/28 04:28:34;;;;;;;6.40;3.42;;;6.80;99.90;;;;;;4967281;28;20023;-69
2021/05/28 04:31:00;;;;;;;11.93;5.45;;;6.80;99.90;;;;;;4967377;28;20097;-69
2021/05/28 04:33:26;;;;;;;8.88;4.07;;;6.80;99.90;;;;;;4967650;28;20511;-69
2021/05/28 04:35:52;;;;;;;9.02;4.50;;;6.90;99.90;;;;;;4965977;28;20035;-69
2021/05/28 04:38:17;;;;;;;8.32;3.15;;;6.90;99.90;;;;;;4966279;28;20034;-69
2021/05/28 04:40:43;;;;;;;7.93;3.85;;;7.00;99.90;;;;;;4968582;28;20031;-69
2021/05/28 04:43:10;;;;;;;9.07;3.70;;;7.00;99.90;;;;;;4969440;28;20037;-69
2021/05/28 04:45:35;;;;;;;9.60;3.67;;;7.00;99.90;;;;;;4971081;28;20089;-69
2021/05/28 04:48:01;;;;;;;7.00;4.32;;;7.00;99.90;;;;;;4970493;28;20475;-69
2021/05/28 04:50:31;;;;;;;8.60;4.32;;;7.10;99.90;;;;;;4971331;28;20046;-69
2021/05/28 04:52:58;;;;;;;8.63;3.72;;;7.10;99.90;;;;;;4970583;28;20038;-69
2021/05/28 04:55:25;;;;;;;8.57;3.50;;;7.10;99.90;;;;;;4969460;28;20034;-69
2021/05/28 04:57:51;;;;;;;11.35;4.10;;;7.20;99.90;;;;;;4985165;28;20041;-69
2021/05/28 05:00:17;;;;;;;9.63;4.15;;;7.20;99.90;;;;;;4966853;28;20039;-69
2021/05/28 05:02:43;;;;;;;6.72;3.40;;;7.20;99.90;;;;;;4985597;28;20046;-69
2021/05/28 05:05:09;;;;;;;5.57;3.00;;;7.20;99.90;;;;;;4969023;28;20042;-69
2021/05/28 05:07:34;;;;;;;6.75;4.28;;;7.20;99.90;;;;;;4970414;28;20045;-69
2021/05/28 05:10:00;;;;;;;4.45;3.28;;;7.30;99.90;;;;;;4970041;28;20035;-69
2021/05/28 05:12:25;;;;;;;8.20;3.30;;;7.30;99.90;;;;;;4970702;28;20062;-69
2021/05/28 05:14:51;;;;;;;13.07;4.40;;;7.40;99.90;;;;;;4970258;28;20074;-70
2021/05/28 05:17:16;;;;;;;9.85;4.65;;;7.40;99.90;;;;;;4970434;28;20113;-69
2021/05/28 05:19:42;;;;;;;10.27;3.60;;;7.40;99.90;;;;;;4970245;28;20067;-69
2021/05/28 05:22:08;;;;;;;8.68;3.90;;;7.50;99.90;;;;;;4969842;28;20081;-69
2021/05/28 05:24:33;;;;;;;8.10;3.63;;;7.60;99.90;;;;;;4970709;28;20043;-70
2021/05/28 05:26:59;;;;;;;7.47;3.40;;;7.70;99.90;;;;;;4970091;28;20098;-69
2021/05/28 05:29:24;;;;;;;8.25;3.75;;;7.80;99.90;;;;;;4969158;28;20518;-69
2021/05/28 05:31:50;;;;;;;6.25;3.67;;;8.10;99.90;;;;;;4976156;28;20039;-69
2021/05/28 05:34:15;;;;;;;5.75;3.30;;;8.50;99.90;;;;;;4969726;28;20049;-69
2021/05/28 05:36:41;;;;;;;8.52;3.65;;;8.90;99.90;;;;;;4984803;28;20043;-69
2021/05/28 05:39:07;;;;;;;6.85;3.38;;;9.30;99.90;;;;;;4969424;28;20521;-69
2021/05/28 05:41:32;;;;;;;7.00;3.45;;;9.90;99.90;;;;;;4984673;28;20038;-69
2021/05/28 05:43:58;;;;;;;6.65;2.97;;;10.50;99.90;;;;;;4969968;28;20669;-69
2021/05/28 05:46:24;;;;;;;7.53;3.60;;;11.00;99.90;;;;;;4969854;28;20679;-69
2021/05/28 05:48:49;;;;;;;8.52;2.85;;;11.30;99.90;;;;;;4969311;28;20035;-69
2021/05/28 05:51:16;;;;;;;7.97;3.20;;;11.70;99.90;;;;;;4969300;28;20026;-69
2021/05/28 05:53:41;;;;;;;7.05;2.65;;;12.00;99.90;;;;;;4968458;28;20066;-69
2021/05/28 05:56:07;;;;;;;8.07;2.35;;;12.40;99.90;;;;;;4967678;28;20056;-69
2021/05/28 05:58:32;;;;;;;5.65;1.92;;;12.70;99.90;;;;;;4968584;28;20705;-69
2021/05/28 06:00:58;;;;;;;8.07;2.03;;;13.00;99.90;;;;;;4956608;28;20399;-69
2021/05/28 06:03:23;;;;;;;5.95;2.05;;;13.20;99.90;;;;;;4967555;28;20431;-70
2021/05/28 06:05:49;;;;;;;5.05;2.20;;;13.50;99.90;;;;;;4968243;28;20415;-69
2021/05/28 06:08:15;;;;;;;5.25;1.83;;;13.80;99.90;;;;;;4967515;28;20193;-70
2021/05/28 06:10:40;;;;;;;5.25;2.05;;;14.10;99.90;;;;;;4983061;28;20560;-70
2021/05/28 06:13:07;;;;;;;5.50;2.30;;;14.40;99.90;;;;;;4967985;28;20570;-70
2021/05/28 06:15:34;;;;;;;7.20;2.50;;;14.70;99.90;;;;;;4966579;28;20661;-69
2021/05/28 06:18:00;;;;;;;3.83;1.70;;;15.10;99.90;;;;;;4967768;28;20038;-69
2021/05/28 06:20:26;;;;;;;4.97;2.00;;;15.50;99.90;;;;;;4967880;28;20043;-70
2021/05/28 06:22:52;;;;;;;6.30;1.50;;;16.40;99.90;;;;;;4968532;28;20038;-69
2021/05/28 06:25:18;;;;;;;4.75;1.52;;;17.20;99.90;;;;;;4968511;28;20047;-69
2021/05/28 06:27:43;;;;;;;2.70;1.35;;;18.20;99.90;;;;;;4967995;28;20104;-69
2021/05/28 06:30:10;;;;;;;6.07;1.75;;;19.60;99.90;;;;;;4967905;28;20054;-70
2021/05/28 06:32:36;;;;;;;4.07;1.83;;;20.70;99.90;;;;;;4968511;28;20043;-70
2021/05/28 06:35:02;;;;;;;3.42;1.10;;;21.70;99.90;;;;;;4968951;28;20047;-69
2021/05/28 06:37:28;;;;;;;4.60;1.65;;;22.50;96.20;;;;;;4964627;28;20031;-70
2021/05/28 06:39:53;;;;;;;17.75;2.30;;;23.20;94.50;;;;;;4967383;28;20092;-70
2021/05/28 06:42:19;;;;;;;4.85;1.92;;;23.70;90.10;;;;;;4967845;28;20131;-70
2021/05/28 06:44:44;;;;;;;4.32;1.23;;;23.60;81.30;;;;;;4967618;28;20043;-70
2021/05/28 06:47:10;;;;;;;5.38;1.70;;;23.40;78.50;;;;;;4967682;28;20041;-71
2021/05/28 06:49:36;;;;;;;5.72;1.80;;;23.10;82.80;;;;;;4982291;28;20089;-70
2021/05/28 06:52:01;;;;;;;5.78;1.70;;;23.10;81.60;;;;;;4968258;28;20035;-70
2021/05/28 06:54:29;;;;;;;5.25;1.90;;;22.70;82.30;;;;;;4967531;28;20043;-70
2021/05/28 06:56:55;;;;;;;5.10;1.90;;;22.30;81.70;;;;;;4964883;28;20039;-70
2021/05/28 06:59:20;;;;;;;6.53;1.80;;;22.30;88.50;;;;;;4967001;28;20031;-71
2021/05/28 07:01:46;;;;;;;3.13;1.77;;;22.60;88.90;;;;;;4963590;28;20034;-72
2021/05/28 07:04:12;;;;;;;3.78;1.40;;;23.40;75.70;;;;;;4957574;28;20035;-71
2021/05/28 07:06:37;;;;;;;4.03;1.75;;;24.40;73.30;;;;;;4961046;28;20034;-71
2021/05/28 07:09:04;;;;;;;5.00;1.63;;;24.50;71.80;;;;;;4964386;28;20038;-71
2021/05/28 07:11:29;;;;;;;5.28;2.00;;;24.90;68.10;;;;;;4970673;28;20439;-71
2021/05/28 07:13:55;;;;;;;6.45;1.98;;;25.30;64.60;;;;;;4971370;28;20035;-70
2021/05/28 07:16:21;;;;;;;5.45;2.00;;;25.60;64.40;;;;;;4960243;28;20045;-71
2021/05/28 07:18:49;;;;;;;4.32;1.73;;;26.10;61.80;;;;;;4961137;28;20046;-70
2021/05/28 07:21:14;;;;;;;4.07;2.05;;;26.50;59.00;;;;;;4963881;28;20145;-71
2021/05/28 07:23:40;;;;;;;5.30;2.13;;;26.80;57.90;;;;;;4969386;28;20129;-72
2021/05/28 07:26:06;;;;;;;7.70;1.98;;;27.10;55.80;;;;;;4970031;28;20446;-71
2021/05/28 07:28:32;;;;;;;4.40;2.20;;;27.10;57.50;;;;;;4969153;28;20038;-71
2021/05/28 07:30:58;;;;;;;4.72;1.80;;;27.30;54.70;;;;;;4966776;28;20387;-72
2021/05/28 07:33:24;;;;;;;3.58;1.88;;;27.30;53.50;;;;;;4961725;28;20415;-70
2021/05/28 07:35:50;;;;;;;5.13;2.25;;;27.50;52.10;;;;;;4962839;28;20047;-70
2021/05/28 07:38:15;;;;;;;3.60;2.03;;;27.90;49.70;;;;;;4961726;28;20428;-70
2021/05/28 07:40:42;;;;;;;3.47;1.52;;;27.90;49.00;;;;;;4962260;28;20038;-70
2021/05/28 07:43:07;;;;;;;3.80;1.77;;;27.80;50.90;;;;;;4969285;28;20114;-71
2021/05/28 07:45:33;;;;;;;5.47;1.80;;;27.50;49.90;;;;;;4969262;28;20133;-70
2021/05/28 07:48:00;;;;;;;6.68;2.08;;;27.10;51.10;;;;;;4968164;28;20035;-69
2021/05/28 07:50:26;;;;;;;5.68;2.40;;;26.50;53.10;;;;;;4968589;28;20142;-70
2021/05/28 07:52:51;;;;;;;5.03;1.50;;;25.80;53.30;;;;;;4960989;28;20562;-71
2021/05/28 07:55:17;;;;;;;6.60;2.05;;;26.00;52.60;;;;;;4967889;28;20035;-69
2021/05/28 07:57:43;;;;;;;4.75;2.03;;;26.60;52.80;;;;;;4965815;28;20376;-69
2021/05/28 08:00:09;;;;;;;5.80;1.67;;;26.80;50.70;;;;;;4957088;28;20041;-71
2021/05/28 08:02:35;;;;;;;4.22;1.50;;;27.80;48.90;;;;;;4957319;28;20131;-71
2021/05/28 08:05:00;;;;;;;4.07;2.08;;;27.60;48.60;;;;;;4963881;28;20654;-71
2021/05/28 08:07:26;;;;;;;5.25;2.00;;;27.30;48.40;;;;;;4962292;28;20038;-71
2021/05/28 08:09:52;;;;;;;7.10;2.40;;;27.40;49.20;;;;;;4953382;28;20486;-71
2021/05/28 08:12:19;;;;;;;9.60;1.80;;;26.70;49.60;;;;;;4954977;28;20027;-71
2021/05/28 08:14:44;;;;;;;2.83;1.80;;;27.20;48.40;;;;;;4969769;28;20372;-71
2021/05/28 08:17:11;;;;;;;3.63;1.20;;;27.10;48.20;;;;;;4973231;28;20078;-71
2021/05/28 08:19:36;;;;;;;5.38;1.65;;;26.80;47.50;;;;;;4973169;28;20039;-70
2021/05/28 08:22:02;;;;;;;5.03;1.38;;;26.80;47.10;;;;;;4970886;28;20034;-70
2021/05/28 08:24:28;;;;;;;3.58;1.35;;;26.70;47.80;;;;;;4972581;28;20043;-70
2021/05/28 08:26:54;;;;;;;6.40;1.90;;;26.30;46.90;;;;;;4972137;28;20046;-69
2021/05/28 08:29:19;;;;;;;3.20;1.40;;;26.00;47.90;;;;;;4964385;28;20035;-72
2021/05/28 08:31:45;;;;;;;3.95;1.40;;;25.40;49.70;;;;;;4966519;28;20035;-69
2021/05/28 08:34:11;;;;;;;3.67;1.33;;;25.60;50.60;;;;;;4955046;28;20033;-70
2021/05/28 08:36:36;;;;;;;3.92;1.63;;;25.50;49.10;;;;;;4965326;28;20039;-70
2021/05/28 08:39:04;;;;;;;3.80;1.50;;;25.00;50.00;;;;;;4957501;28;20758;-70
2021/05/28 08:41:30;;;;;;;4.15;1.50;;;24.40;49.10;;;;;;4956193;28;20059;-70
2021/05/28 08:43:55;;;;;;;3.20;1.40;;;24.00;50.40;;;;;;4966588;28;20038;-70
2021/05/28 08:46:21;;;;;;;5.30;1.98;;;23.70;53.90;;;;;;4969162;28;20422;-69
2021/05/28 08:48:50;;;;;;;4.93;1.60;;;23.30;57.70;;;;;;4967670;28;20074;-70
2021/05/28 08:51:16;;;;;;;2.60;1.33;;;23.10;59.40;;;;;;4969744;28;20038;-70
2021/05/28 08:53:42;;;;;;;3.83;1.13;;;23.10;62.60;;;;;;4969843;28;20415;-69
2021/05/28 08:56:08;;;;;;;3.25;0.90;;;23.30;59.70;;;;;;4969695;28;20059;-69
2021/05/28 08:58:35;;;;;;;5.78;1.13;;;23.10;58.20;;;;;;4969271;28;20097;-70
2021/05/28 09:01:00;;;;;;;6.03;1.30;;;22.80;59.40;;;;;;4966409;28;20031;-69
2021/05/28 09:03:29;;;;;;;1.58;0.68;;;22.30;59.40;;;;;;4970187;28;20781;-70
2021/05/28 09:05:57;;;;;;;3.58;0.60;;;22.10;59.00;;;;;;4969910;28;20046;-69
2021/05/28 09:08:25;;;;;;;4.05;1.10;;;22.20;58.90;;;;;;4968912;28;20042;-70
2021/05/28 09:10:53;;;;;;;2.70;0.90;;;22.10;59.60;;;;;;4969137;28;20051;-69
2021/05/28 09:13:22;;;;;;;2.90;0.88;;;22.00;59.60;;;;;;4969061;28;20364;-70
2021/05/28 09:16:03;;;;;;;3.72;0.98;;;21.70;59.60;;;;;;4961107;28;20477;-70
2021/05/28 09:18:45;;;;;;;3.83;0.85;;;21.50;60.90;;;;;;4965312;28;20038;-70
2021/05/28 09:21:20;;;;;;;3.63;1.20;;;21.30;63.20;;;;;;4967812;28;20041;-69
2021/05/28 09:23:46;;;;;;;2.15;0.70;;;21.30;62.80;;;;;;4968448;28;20035;-69
2021/05/28 09:26:12;;;;;;;4.68;0.90;;;21.40;64.10;;;;;;4968115;28;20122;-69
2021/05/28 09:28:43;;;;;;;1.98;0.70;;;21.50;62.60;;;;;;4967880;28;20119;-70
2021/05/28 09:31:13;;;;;;;2.60;0.73;;;21.70;61.80;;;;;;4968758;28;20041;-70
2021/05/28 09:33:41;;;;;;;1.55;0.73;;;21.60;61.40;;;;;;4969104;28;20035;-69
2021/05/28 09:36:09;;;;;;;2.63;0.77;;;21.50;60.90;;;;;;4968726;28;20027;-69
2021/05/28 09:38:36;;;;;;;4.45;1.15;;;21.50;66.60;;;;;;4967035;28;20117;-69
2021/05/28 09:41:02;;;;;;;4.20;0.93;;;21.60;66.30;;;;;;4969275;28;20179;-69
2021/05/28 09:43:28;;;;;;;2.47;0.88;;;21.70;65.00;;;;;;4968572;28;20034;-70
2021/05/28 09:45:53;;;;;;;2.75;0.70;;;21.90;69.10;;;;;;4969505;28;20048;-68
2021/05/28 09:48:28;;;;;;;2.72;1.55;;;22.00;62.20;;;;;;4967003;28;20034;-68
2021/05/28 09:51:03;;;;;;;8.48;1.25;;;22.00;64.50;;;;;;4966634;28;20039;-68
2021/05/28 09:53:30;;;;;;;3.33;1.17;;;22.00;61.20;;;;;;4983671;28;20042;-70
2021/05/28 09:55:57;;;;;;;2.25;0.90;;;22.10;62.00;;;;;;4969072;28;20046;-69
2021/05/28 09:58:23;;;;;;;3.85;1.30;;;22.00;63.80;;;;;;4982678;28;20102;-70
2021/05/28 10:00:49;;;;;;;2.92;0.85;;;22.20;65.50;;;;;;4965932;28;20031;-70
2021/05/28 10:03:26;;;;;;;2.40;0.90;;;22.10;61.80;;;;;;4964913;28;20030;-69
2021/05/28 10:05:57;;;;;;;2.10;0.98;;;22.10;62.90;;;;;;4965371;28;20035;-69
2021/05/28 10:08:25;;;;;;;3.60;1.13;;;21.90;61.60;;;;;;4968167;28;20030;-70
2021/05/28 10:10:52;;;;;;;5.63;1.67;;;22.00;61.10;;;;;;4969095;28;20097;-69
2021/05/28 10:13:20;;;;;;;4.70;1.25;;;21.80;61.20;;;;;;4968246;28;20035;-68
2021/05/28 10:15:48;;;;;;;5.18;1.40;;;21.50;61.10;;;;;;4964505;28;20508;-70
2021/05/28 10:18:15;;;;;;;5.90;1.08;;;21.50;61.50;;;;;;4966031;28;20496;-69
2021/05/28 10:20:43;;;;;;;4.95;1.23;;;21.60;61.60;;;;;;4968316;28;20058;-69
2021/05/28 10:23:10;;;;;;;3.10;0.70;;;21.50;61.90;;;;;;4968034;28;20026;-69
2021/05/28 10:25:38;;;;;;;2.65;1.23;;;21.50;62.70;;;;;;4968109;28;20043;-70
2021/05/28 10:28:08;;;;;;;5.70;1.65;;;21.50;64.10;;;;;;4967158;28;20041;-70
2021/05/28 10:30:42;;;;;;;3.63;1.30;;;21.40;61.70;;;;;;4967384;28;20085;-70
2021/05/28 10:33:14;;;;;;;7.22;1.38;;;21.30;61.00;;;;;;4967864;28;20583;-68
2021/05/28 10:35:44;;;;;;;2.28;0.93;;;21.20;65.00;;;;;;4968243;28;20035;-69
2021/05/28 10:38:52;;;;;;;4.85;1.02;;;21.20;66.20;;;;;;4962111;28;20093;-69
2021/05/28 10:41:20;;;;;;;3.88;0.93;;;21.10;63.20;;;;;;4922956;29;20044;-68
2021/05/28 10:43:48;;;;;;;8.02;1.33;;;21.00;66.00;;;;;;4961252;28;20031;-69
2021/05/28 10:46:14;;;;;;;2.75;0.93;;;20.90;67.80;;;;;;4964256;28;20034;-69
2021/05/28 10:48:40;;;;;;;5.88;1.27;;;21.00;67.40;;;;;;4966012;28;20041;-69
2021/05/28 10:51:12;;;;;;;4.25;1.63;;;21.10;67.00;;;;;;4967743;28;20050;-69
2021/05/28 10:53:38;;;;;;;6.53;1.17;;;21.20;66.30;;;;;;4968275;28;20035;-69
2021/05/28 10:56:09;;;;;;;3.97;1.55;;;21.00;65.00;;;;;;4968026;28;20873;-69
2021/05/28 10:59:01;;;;;;;3.05;1.10;;;21.20;63.00;;;;;;4967366;28;20043;-70
2021/05/28 11:01:33;;;;;;;3.20;1.02;;;21.30;63.90;;;;;;4967498;28;20041;-69
2021/05/28 11:04:07;;;;;;;3.33;1.17;;;21.30;62.70;;;;;;4968071;28;20051;-70
2021/05/28 11:07:02;;;;;;;2.00;1.05;;;21.20;65.50;;;;;;4967249;28;20045;-69
2021/05/28 11:09:50;;;;;;;4.85;1.17;;;21.30;63.80;;;;;;4964705;28;20066;-70
2021/05/28 11:12:25;;;;;;;2.88;0.90;;;21.20;63.30;;;;;;4963960;28;20038;-69
2021/05/28 11:15:09;;;;;;;3.75;1.05;;;21.20;62.90;;;;;;4968082;28;20109;-69
2021/05/28 11:17:51;;;;;;;4.95;1.02;;;21.30;62.00;;;;;;4966575;28;20034;-71
2021/05/28 11:20:33;;;;;;;2.03;1.08;;;21.20;60.70;;;;;;4982522;28;20034;-70
2021/05/28 11:23:00;;;;;;;1.95;0.80;;;21.10;62.00;;;;;;4968192;28;20172;-70
2021/05/28 11:25:30;;;;;;;2.97;0.60;;;20.80;61.90;;;;;;4967546;28;20118;-68
2021/05/28 11:28:09;;;;;;;3.17;0.73;;;20.60;63.00;;;;;;4967013;28;20555;-68
2021/05/28 11:31:00;;;;;;;1.70;0.90;;;20.70;64.70;;;;;;4966811;28;20124;-68
2021/05/28 11:33:54;;;;;;;;;;;20.70;63.10;;;;;;4964847;28;20173;-70
2021/05/28 11:36:38;;;;;;;3.78;1.40;;;20.60;64.50;;;;;;4956264;28;19940;-68
2021/05/28 11:39:10;;;;;;;3.03;1.05;;;20.80;63.60;;;;;;4966430;28;20039;-69
2021/05/28 11:42:00;;;;;;;2.08;0.88;;;20.90;64.20;;;;;;4967062;28;20088;-70
2021/05/28 11:44:27;;;;;;;;;;;21.10;63.40;;;;;;4982554;28;20042;-69
2021/05/28 11:46:53;;;;;;;2.10;0.80;;;21.20;61.20;;;;;;4965945;28;19920;-69
2021/05/28 11:49:21;;;;;;;2.30;0.82;;;21.20;63.30;;;;;;4966692;28;20379;-69
2021/05/28 11:52:05;;;;;;;2.72;0.70;;;21.20;61.40;;;;;;4971571;28;20100;-69
2021/05/28 11:54:34;;;;;;;2.55;0.85;;;21.20;63.00;;;;;;4971207;28;20125;-69
2021/05/28 11:57:09;;;;;;;3.72;0.90;;;21.40;63.30;;;;;;4971257;28;20027;-70
2021/05/28 11:59:50;;;;;;;2.15;1.10;;;21.40;60.70;;;;;;4969449;28;20122;-70
2021/05/28 12:02:55;;;;;;;5.50;1.13;;;21.10;60.10;;;;;;4986199;28;20407;-68
2021/05/28 12:05:29;;;;;;;1.65;0.80;;;21.10;59.10;;;;;;4912343;29;20563;-69
2021/05/28 12:08:09;;;;;;;1.52;0.68;;;21.00;61.20;;;;;;4965156;28;20035;-70
2021/05/28 12:10:36;;;;;;;1.65;0.50;;;21.10;62.80;;;;;;4970555;28;20051;-71
2021/05/28 12:13:01;;;;;;;1.40;0.55;;;21.20;61.50;;;;;;4970737;28;20046;-69
2021/05/28 12:15:32;;;;;;;4.68;0.77;;;21.20;61.40;;;;;;4970113;28;20039;-69
2021/05/28 12:18:01;;;;;;;1.80;0.80;;;21.30;59.20;;;;;;4969949;28;20125;-69
2021/05/28 12:20:32;;;;;;;2.05;0.68;;;21.40;59.60;;;;;;4967444;28;20507;-70
2021/05/28 12:23:03;;;;;;;2.65;0.73;;;21.60;58.30;;;;;;4970708;28;20069;-69
2021/05/28 12:25:33;;;;;;;2.42;0.70;;;21.50;58.30;;;;;;4970305;28;20047;-69
2021/05/28 12:28:16;;;;;;;1.50;0.50;;;21.50;57.30;;;;;;4970486;28;20035;-70
2021/05/28 12:30:45;;;;;;;1.75;0.40;;;21.50;58.30;;;;;;4967291;28;20061;-68
2021/05/28 12:33:11;;;;;;;2.50;0.90;;;21.60;56.60;;;;;;4969294;28;20495;-69
2021/05/28 12:35:37;;;;;;;1.10;0.57;;;21.70;59.90;;;;;;4961096;28;20043;-69
2021/05/28 12:38:14;;;;;;;3.05;0.63;;;21.90;58.00;;;;;;4957848;28;20868;-70
2021/05/28 12:40:46;;;;;;;2.42;0.90;;;22.00;57.40;;;;;;4963709;28;20054;-70
2021/05/28 12:43:17;;;;;;;1.92;0.50;;;22.10;55.80;;;;;;4968661;28;20031;-70
2021/05/28 12:45:44;;;;;;;0.57;0.38;;;22.10;55.60;;;;;;4969039;28;20042;-70
2021/05/28 12:48:12;;;;;;;1.92;0.40;;;22.20;54.40;;;;;;4968668;28;20031;-69
2021/05/28 12:50:43;;;;;;;1.95;0.63;;;22.00;54.60;;;;;;4968704;28;20046;-70
2021/05/28 12:53:18;;;;;;;3.42;0.47;;;21.90;54.10;;;;;;4968664;28;20394;-71